sensor_id;sensor_type;location;lat;lon;timestamp;temperature;humidity
7666;DHT22;3875;46.562;4.898;2023-07-22T00:01:51;19.10;74.30
7666;DHT22;3875;46.562;4.898;2023-07-22T00:04:17;19.10;74.40
7666;DHT22;3875;46.562;4.898;2023-07-22T00:06:43;19.10;74.40
7666;DHT22;3875;46.562;4.898;2023-07-22T00:09:08;19.00;74.40
7666;DHT22;3875;46.562;4.898;2023-07-22T00:11:35;19.10;74.40
7666;DHT22;3875;46.562;4.898;2023-07-22T00:14:01;19.00;74.40
7666;DHT22;3875;46.562;4.898;2023-07-22T00:16:27;18.90;74.50
7666;DHT22;3875;46.562;4.898;2023-07-22T00:18:54;18.80;74.70
7666;DHT22;3875;46.562;4.898;2023-07-22T00:21:20;18.80;74.90
7666;DHT22;3875;46.562;4.898;2023-07-22T00:23:46;18.70;75.00
7666;DHT22;3875;46.562;4.898;2023-07-22T00:26:11;18.70;75.40
7666;DHT22;3875;46.562;4.898;2023-07-22T00:28:37;18.70;75.20
7666;DHT22;3875;46.562;4.898;2023-07-22T00:31:03;18.60;75.30
7666;DHT22;3875;46.562;4.898;2023-07-22T00:33:29;18.60;75.60
7666;DHT22;3875;46.562;4.898;2023-07-22T00:35:55;18.60;75.60
7666;DHT22;3875;46.562;4.898;2023-07-22T00:38:21;18.60;75.70
7666;DHT22;3875;46.562;4.898;2023-07-22T00:40:47;18.60;75.60
7666;DHT22;3875;46.562;4.898;2023-07-22T00:43:12;18.60;75.50
7666;DHT22;3875;46.562;4.898;2023-07-22T00:45:38;18.60;75.40
7666;DHT22;3875;46.562;4.898;2023-07-22T00:48:05;18.60;75.40
7666;DHT22;3875;46.562;4.898;2023-07-22T00:50:32;18.60;75.20
7666;DHT22;3875;46.562;4.898;2023-07-22T00:52:58;18.50;75.40
7666;DHT22;3875;46.562;4.898;2023-07-22T00:55:25;18.40;75.80
7666;DHT22;3875;46.562;4.898;2023-07-22T00:57:51;18.30;76.20
7666;DHT22;3875;46.562;4.898;2023-07-22T01:00:16;18.30;76.40
7666;DHT22;3875;46.562;4.898;2023-07-22T01:02:43;18.40;76.10
7666;DHT22;3875;46.562;4.898;2023-07-22T01:05:10;18.40;75.90
7666;DHT22;3875;46.562;4.898;2023-07-22T01:07:37;18.50;75.70
7666;DHT22;3875;46.562;4.898;2023-07-22T01:10:07;18.40;75.70
7666;DHT22;3875;46.562;4.898;2023-07-22T01:12:33;18.40;75.80
7666;DHT22;3875;46.562;4.898;2023-07-22T01:14:59;18.30;76.00
7666;DHT22;3875;46.562;4.898;2023-07-22T01:17:25;18.30;76.00
7666;DHT22;3875;46.562;4.898;2023-07-22T01:19:51;18.30;75.90
7666;DHT22;3875;46.562;4.898;2023-07-22T01:22:18;18.40;75.90
7666;DHT22;3875;46.562;4.898;2023-07-22T01:24:44;18.40;75.70
7666;DHT22;3875;46.562;4.898;2023-07-22T01:27:12;18.40;75.60
7666;DHT22;3875;46.562;4.898;2023-07-22T01:29:39;18.30;75.90
7666;DHT22;3875;46.562;4.898;2023-07-22T01:32:05;18.20;76.20
7666;DHT22;3875;46.562;4.898;2023-07-22T01:34:31;18.20;76.10
7666;DHT22;3875;46.562;4.898;2023-07-22T01:36:57;18.10;76.10
7666;DHT22;3875;46.562;4.898;2023-07-22T01:39:23;18.10;76.30
7666;DHT22;3875;46.562;4.898;2023-07-22T01:41:48;18.10;76.30
7666;DHT22;3875;46.562;4.898;2023-07-22T01:44:14;18.10;76.40
7666;DHT22;3875;46.562;4.898;2023-07-22T01:46:43;18.10;76.30
7666;DHT22;3875;46.562;4.898;2023-07-22T01:49:11;18.00;76.60
7666;DHT22;3875;46.562;4.898;2023-07-22T01:51:38;17.90;77.00
7666;DHT22;3875;46.562;4.898;2023-07-22T01:54:04;17.50;78.40
7666;DHT22;3875;46.562;4.898;2023-07-22T01:56:30;17.30;79.30
7666;DHT22;3875;46.562;4.898;2023-07-22T01:58:56;17.10;79.90
7666;DHT22;3875;46.562;4.898;2023-07-22T02:01:22;17.00;80.60
7666;DHT22;3875;46.562;4.898;2023-07-22T02:03:47;17.00;80.20
7666;DHT22;3875;46.562;4.898;2023-07-22T02:06:13;17.00;80.50
7666;DHT22;3875;46.562;4.898;2023-07-22T02:08:39;16.90;81.00
7666;DHT22;3875;46.562;4.898;2023-07-22T02:11:07;16.80;81.20
7666;DHT22;3875;46.562;4.898;2023-07-22T02:13:34;16.80;81.00
7666;DHT22;3875;46.562;4.898;2023-07-22T02:16:01;17.00;80.70
7666;DHT22;3875;46.562;4.898;2023-07-22T02:18:27;17.10;80.20
7666;DHT22;3875;46.562;4.898;2023-07-22T02:20:53;17.30;79.70
7666;DHT22;3875;46.562;4.898;2023-07-22T02:23:20;17.40;79.30
7666;DHT22;3875;46.562;4.898;2023-07-22T02:25:52;17.50;79.00
7666;DHT22;3875;46.562;4.898;2023-07-22T02:28:19;17.50;78.90
7666;DHT22;3875;46.562;4.898;2023-07-22T02:30:51;17.60;78.70
7666;DHT22;3875;46.562;4.898;2023-07-22T02:33:21;17.40;79.10
7666;DHT22;3875;46.562;4.898;2023-07-22T02:35:47;17.40;79.20
7666;DHT22;3875;46.562;4.898;2023-07-22T02:38:13;17.30;79.30
7666;DHT22;3875;46.562;4.898;2023-07-22T02:40:40;17.20;79.60
7666;DHT22;3875;46.562;4.898;2023-07-22T02:43:06;17.20;79.60
7666;DHT22;3875;46.562;4.898;2023-07-22T02:45:33;17.20;79.40
7666;DHT22;3875;46.562;4.898;2023-07-22T02:47:58;17.30;79.40
7666;DHT22;3875;46.562;4.898;2023-07-22T02:50:27;17.30;79.30
7666;DHT22;3875;46.562;4.898;2023-07-22T02:52:53;17.40;79.10
7666;DHT22;3875;46.562;4.898;2023-07-22T02:55:19;17.40;78.90
7666;DHT22;3875;46.562;4.898;2023-07-22T02:57:45;17.50;78.60
7666;DHT22;3875;46.562;4.898;2023-07-22T03:00:15;17.50;78.60
7666;DHT22;3875;46.562;4.898;2023-07-22T03:02:51;17.50;78.60
7666;DHT22;3875;46.562;4.898;2023-07-22T03:05:21;17.50;78.50
7666;DHT22;3875;46.562;4.898;2023-07-22T03:07:47;17.50;78.60
7666;DHT22;3875;46.562;4.898;2023-07-22T03:10:12;17.50;78.80
7666;DHT22;3875;46.562;4.898;2023-07-22T03:12:38;17.50;78.60
7666;DHT22;3875;46.562;4.898;2023-07-22T03:15:04;17.50;78.40
7666;DHT22;3875;46.562;4.898;2023-07-22T03:17:34;17.40;78.40
7666;DHT22;3875;46.562;4.898;2023-07-22T03:19:59;17.40;78.40
7666;DHT22;3875;46.562;4.898;2023-07-22T03:22:26;17.40;78.40
7666;DHT22;3875;46.562;4.898;2023-07-22T03:24:51;17.40;78.60
7666;DHT22;3875;46.562;4.898;2023-07-22T03:27:17;17.30;78.70
7666;DHT22;3875;46.562;4.898;2023-07-22T03:29:43;17.30;78.70
7666;DHT22;3875;46.562;4.898;2023-07-22T03:32:09;17.30;78.80
7666;DHT22;3875;46.562;4.898;2023-07-22T03:34:35;17.30;78.80
7666;DHT22;3875;46.562;4.898;2023-07-22T03:37:01;17.30;78.60
7666;DHT22;3875;46.562;4.898;2023-07-22T03:39:26;17.30;78.40
7666;DHT22;3875;46.562;4.898;2023-07-22T03:41:52;17.20;78.60
7666;DHT22;3875;46.562;4.898;2023-07-22T03:44:18;17.20;79.00
7666;DHT22;3875;46.562;4.898;2023-07-22T03:46:43;17.10;79.00
7666;DHT22;3875;46.562;4.898;2023-07-22T03:49:09;17.10;79.20
7666;DHT22;3875;46.562;4.898;2023-07-22T03:51:35;17.10;79.30
7666;DHT22;3875;46.562;4.898;2023-07-22T03:54:00;16.80;81.20
7666;DHT22;3875;46.562;4.898;2023-07-22T03:56:26;16.60;81.20
7666;DHT22;3875;46.562;4.898;2023-07-22T03:58:52;16.60;81.30
7666;DHT22;3875;46.562;4.898;2023-07-22T04:01:19;16.60;81.30
7666;DHT22;3875;46.562;4.898;2023-07-22T04:03:44;16.70;81.00
7666;DHT22;3875;46.562;4.898;2023-07-22T04:06:13;16.70;81.00
7666;DHT22;3875;46.562;4.898;2023-07-22T04:08:38;16.80;80.60
7666;DHT22;3875;46.562;4.898;2023-07-22T04:11:04;16.70;80.80
7666;DHT22;3875;46.562;4.898;2023-07-22T04:13:30;16.70;80.90
7666;DHT22;3875;46.562;4.898;2023-07-22T04:15:55;16.50;81.30
7666;DHT22;3875;46.562;4.898;2023-07-22T04:18:21;16.40;81.90
7666;DHT22;3875;46.562;4.898;2023-07-22T04:20:47;16.20;82.70
7666;DHT22;3875;46.562;4.898;2023-07-22T04:23:16;16.20;82.70
7666;DHT22;3875;46.562;4.898;2023-07-22T04:25:43;16.30;82.30
7666;DHT22;3875;46.562;4.898;2023-07-22T04:28:08;16.40;82.00
7666;DHT22;3875;46.562;4.898;2023-07-22T04:30:35;16.50;81.70
7666;DHT22;3875;46.562;4.898;2023-07-22T04:33:01;16.60;81.70
7666;DHT22;3875;46.562;4.898;2023-07-22T04:35:26;16.70;81.50
7666;DHT22;3875;46.562;4.898;2023-07-22T04:37:52;16.80;81.20
7666;DHT22;3875;46.562;4.898;2023-07-22T04:40:19;17.00;80.90
7666;DHT22;3875;46.562;4.898;2023-07-22T04:42:45;17.00;80.70
7666;DHT22;3875;46.562;4.898;2023-07-22T04:45:11;17.10;80.50
7666;DHT22;3875;46.562;4.898;2023-07-22T04:47:38;17.20;80.40
7666;DHT22;3875;46.562;4.898;2023-07-22T04:50:07;17.30;80.20
7666;DHT22;3875;46.562;4.898;2023-07-22T04:52:37;17.40;80.20
7666;DHT22;3875;46.562;4.898;2023-07-22T04:55:03;17.50;80.10
7666;DHT22;3875;46.562;4.898;2023-07-22T04:57:41;17.50;79.90
7666;DHT22;3875;46.562;4.898;2023-07-22T05:00:11;17.60;79.80
7666;DHT22;3875;46.562;4.898;2023-07-22T05:02:42;17.70;79.70
7666;DHT22;3875;46.562;4.898;2023-07-22T05:05:15;17.70;79.40
7666;DHT22;3875;46.562;4.898;2023-07-22T05:07:40;17.80;79.30
7666;DHT22;3875;46.562;4.898;2023-07-22T05:10:10;17.80;79.40
7666;DHT22;3875;46.562;4.898;2023-07-22T05:12:38;17.90;79.40
7666;DHT22;3875;46.562;4.898;2023-07-22T05:15:05;18.00;79.20
7666;DHT22;3875;46.562;4.898;2023-07-22T05:17:30;18.10;79.10
7666;DHT22;3875;46.562;4.898;2023-07-22T05:19:57;18.20;78.90
7666;DHT22;3875;46.562;4.898;2023-07-22T05:22:23;18.30;79.00
7666;DHT22;3875;46.562;4.898;2023-07-22T05:24:48;18.50;79.00
7666;DHT22;3875;46.562;4.898;2023-07-22T05:27:14;18.60;78.90
7666;DHT22;3875;46.562;4.898;2023-07-22T05:29:40;18.70;79.10
7666;DHT22;3875;46.562;4.898;2023-07-22T05:32:06;18.80;79.40
7666;DHT22;3875;46.562;4.898;2023-07-22T05:34:32;18.80;80.10
7666;DHT22;3875;46.562;4.898;2023-07-22T05:36:58;19.00;79.80
7666;DHT22;3875;46.562;4.898;2023-07-22T05:39:23;19.00;79.60
7666;DHT22;3875;46.562;4.898;2023-07-22T05:41:49;19.20;79.50
7666;DHT22;3875;46.562;4.898;2023-07-22T05:44:14;19.40;79.30
7666;DHT22;3875;46.562;4.898;2023-07-22T05:46:40;19.50;78.90
7666;DHT22;3875;46.562;4.898;2023-07-22T05:49:06;19.60;78.40
7666;DHT22;3875;46.562;4.898;2023-07-22T05:51:31;19.70;78.30
7666;DHT22;3875;46.562;4.898;2023-07-22T05:53:57;19.80;78.20
7666;DHT22;3875;46.562;4.898;2023-07-22T05:56:23;19.90;78.10
7666;DHT22;3875;46.562;4.898;2023-07-22T05:58:49;20.10;78.00
7666;DHT22;3875;46.562;4.898;2023-07-22T06:01:15;20.30;77.80
7666;DHT22;3875;46.562;4.898;2023-07-22T06:03:40;20.30;77.70
7666;DHT22;3875;46.562;4.898;2023-07-22T06:06:07;20.40;77.60
7666;DHT22;3875;46.562;4.898;2023-07-22T06:08:33;20.40;77.50
7666;DHT22;3875;46.562;4.898;2023-07-22T06:10:59;20.50;77.10
7666;DHT22;3875;46.562;4.898;2023-07-22T06:13:24;20.60;77.30
7666;DHT22;3875;46.562;4.898;2023-07-22T06:15:50;20.90;77.30
7666;DHT22;3875;46.562;4.898;2023-07-22T06:18:16;21.00;77.10
7666;DHT22;3875;46.562;4.898;2023-07-22T06:20:41;21.20;76.80
7666;DHT22;3875;46.562;4.898;2023-07-22T06:23:07;21.40;76.40
7666;DHT22;3875;46.562;4.898;2023-07-22T06:25:33;21.60;76.00
7666;DHT22;3875;46.562;4.898;2023-07-22T06:27:58;21.70;75.50
7666;DHT22;3875;46.562;4.898;2023-07-22T06:30:24;21.80;75.10
7666;DHT22;3875;46.562;4.898;2023-07-22T06:32:49;21.90;74.90
7666;DHT22;3875;46.562;4.898;2023-07-22T06:35:15;22.10;74.90
7666;DHT22;3875;46.562;4.898;2023-07-22T06:37:41;22.20;74.50
7666;DHT22;3875;46.562;4.898;2023-07-22T06:40:07;22.40;74.30
7666;DHT22;3875;46.562;4.898;2023-07-22T06:42:33;22.50;73.90
7666;DHT22;3875;46.562;4.898;2023-07-22T06:44:59;22.60;73.80
7666;DHT22;3875;46.562;4.898;2023-07-22T06:47:27;22.80;73.50
7666;DHT22;3875;46.562;4.898;2023-07-22T06:49:53;22.90;73.50
7666;DHT22;3875;46.562;4.898;2023-07-22T06:52:19;23.00;73.70
7666;DHT22;3875;46.562;4.898;2023-07-22T06:54:44;23.20;73.50
7666;DHT22;3875;46.562;4.898;2023-07-22T06:57:10;23.30;73.70
7666;DHT22;3875;46.562;4.898;2023-07-22T06:59:36;23.50;73.60
7666;DHT22;3875;46.562;4.898;2023-07-22T07:02:03;23.60;73.40
7666;DHT22;3875;46.562;4.898;2023-07-22T07:04:30;23.80;73.20
7666;DHT22;3875;46.562;4.898;2023-07-22T07:06:56;23.90;72.80
7666;DHT22;3875;46.562;4.898;2023-07-22T07:09:21;23.90;71.00
7666;DHT22;3875;46.562;4.898;2023-07-22T07:11:47;23.90;70.20
7666;DHT22;3875;46.562;4.898;2023-07-22T07:14:13;23.80;70.00
7666;DHT22;3875;46.562;4.898;2023-07-22T07:16:38;23.80;70.00
7666;DHT22;3875;46.562;4.898;2023-07-22T07:19:04;23.70;68.40
7666;DHT22;3875;46.562;4.898;2023-07-22T07:21:30;23.70;69.20
7666;DHT22;3875;46.562;4.898;2023-07-22T07:23:56;23.90;69.00
7666;DHT22;3875;46.562;4.898;2023-07-22T07:26:22;24.00;68.50
7666;DHT22;3875;46.562;4.898;2023-07-22T07:28:49;24.20;68.50
7666;DHT22;3875;46.562;4.898;2023-07-22T07:31:18;24.30;67.40
7666;DHT22;3875;46.562;4.898;2023-07-22T07:33:43;24.20;67.70
7666;DHT22;3875;46.562;4.898;2023-07-22T07:36:09;24.40;67.90
7666;DHT22;3875;46.562;4.898;2023-07-22T07:38:35;24.60;67.40
7666;DHT22;3875;46.562;4.898;2023-07-22T07:41:06;24.80;66.40
7666;DHT22;3875;46.562;4.898;2023-07-22T07:43:40;24.70;66.10
7666;DHT22;3875;46.562;4.898;2023-07-22T07:46:23;25.00;67.10
7666;DHT22;3875;46.562;4.898;2023-07-22T07:48:55;25.50;65.60
7666;DHT22;3875;46.562;4.898;2023-07-22T07:51:22;25.70;66.30
7666;DHT22;3875;46.562;4.898;2023-07-22T07:53:48;25.90;67.10
7666;DHT22;3875;46.562;4.898;2023-07-22T07:56:15;26.10;66.60
7666;DHT22;3875;46.562;4.898;2023-07-22T07:58:42;26.50;65.90
7666;DHT22;3875;46.562;4.898;2023-07-22T08:01:08;26.80;65.50
7666;DHT22;3875;46.562;4.898;2023-07-22T08:03:35;26.90;65.10
7666;DHT22;3875;46.562;4.898;2023-07-22T08:06:04;26.90;65.10
7666;DHT22;3875;46.562;4.898;2023-07-22T08:08:29;27.00;65.00
7666;DHT22;3875;46.562;4.898;2023-07-22T08:11:00;27.30;64.70
7666;DHT22;3875;46.562;4.898;2023-07-22T08:13:26;27.60;64.30
7666;DHT22;3875;46.562;4.898;2023-07-22T08:15:53;27.70;64.00
7666;DHT22;3875;46.562;4.898;2023-07-22T08:18:18;27.70;64.10
7666;DHT22;3875;46.562;4.898;2023-07-22T08:20:44;27.60;64.30
7666;DHT22;3875;46.562;4.898;2023-07-22T08:23:12;27.70;64.70
7666;DHT22;3875;46.562;4.898;2023-07-22T08:25:38;28.00;64.30
7666;DHT22;3875;46.562;4.898;2023-07-22T08:28:04;28.20;63.60
7666;DHT22;3875;46.562;4.898;2023-07-22T08:30:29;28.30;63.60
7666;DHT22;3875;46.562;4.898;2023-07-22T08:32:55;28.30;63.60
7666;DHT22;3875;46.562;4.898;2023-07-22T08:35:21;28.30;63.30
7666;DHT22;3875;46.562;4.898;2023-07-22T08:37:48;28.40;63.20
7666;DHT22;3875;46.562;4.898;2023-07-22T08:40:13;28.70;62.10
7666;DHT22;3875;46.562;4.898;2023-07-22T08:42:40;28.70;61.30
7666;DHT22;3875;46.562;4.898;2023-07-22T08:45:09;28.60;61.60
7666;DHT22;3875;46.562;4.898;2023-07-22T08:47:36;28.70;61.50
7666;DHT22;3875;46.562;4.898;2023-07-22T08:50:06;29.00;60.40
7666;DHT22;3875;46.562;4.898;2023-07-22T08:52:33;29.10;61.00
7666;DHT22;3875;46.562;4.898;2023-07-22T08:55:00;29.30;60.30
7666;DHT22;3875;46.562;4.898;2023-07-22T08:57:27;29.30;59.50
7666;DHT22;3875;46.562;4.898;2023-07-22T08:59:56;29.30;59.60
7666;DHT22;3875;46.562;4.898;2023-07-22T09:02:24;29.00;58.00
7666;DHT22;3875;46.562;4.898;2023-07-22T09:04:50;29.20;59.60
7666;DHT22;3875;46.562;4.898;2023-07-22T09:07:17;28.90;59.00
7666;DHT22;3875;46.562;4.898;2023-07-22T09:09:45;28.40;59.40
7666;DHT22;3875;46.562;4.898;2023-07-22T09:12:13;27.90;60.50
7666;DHT22;3875;46.562;4.898;2023-07-22T09:14:40;27.40;60.60
7666;DHT22;3875;46.562;4.898;2023-07-22T09:17:06;27.00;62.00
7666;DHT22;3875;46.562;4.898;2023-07-22T09:19:32;26.90;62.70
7666;DHT22;3875;46.562;4.898;2023-07-22T09:21:58;27.10;62.70
7666;DHT22;3875;46.562;4.898;2023-07-22T09:24:26;27.00;62.10
7666;DHT22;3875;46.562;4.898;2023-07-22T09:26:53;26.80;62.80
7666;DHT22;3875;46.562;4.898;2023-07-22T09:29:36;26.90;63.30
7666;DHT22;3875;46.562;4.898;2023-07-22T09:32:03;27.80;61.60
7666;DHT22;3875;46.562;4.898;2023-07-22T09:34:29;28.60;60.50
7666;DHT22;3875;46.562;4.898;2023-07-22T09:36:57;28.90;59.10
7666;DHT22;3875;46.562;4.898;2023-07-22T09:39:23;29.00;59.00
7666;DHT22;3875;46.562;4.898;2023-07-22T09:41:50;28.60;58.90
7666;DHT22;3875;46.562;4.898;2023-07-22T09:44:16;28.10;59.30
7666;DHT22;3875;46.562;4.898;2023-07-22T09:46:49;27.60;59.80
7666;DHT22;3875;46.562;4.898;2023-07-22T09:49:17;27.30;60.50
7666;DHT22;3875;46.562;4.898;2023-07-22T09:51:43;26.90;61.30
7666;DHT22;3875;46.562;4.898;2023-07-22T09:54:09;26.80;61.80
7666;DHT22;3875;46.562;4.898;2023-07-22T09:56:54;27.00;61.20
7666;DHT22;3875;46.562;4.898;2023-07-22T09:59:21;27.60;61.50
7666;DHT22;3875;46.562;4.898;2023-07-22T10:01:48;28.40;58.50
7666;DHT22;3875;46.562;4.898;2023-07-22T10:04:16;28.70;58.60
7666;DHT22;3875;46.562;4.898;2023-07-22T10:06:42;28.90;57.90
7666;DHT22;3875;46.562;4.898;2023-07-22T10:09:11;28.70;57.50
7666;DHT22;3875;46.562;4.898;2023-07-22T10:11:39;28.70;58.80
7666;DHT22;3875;46.562;4.898;2023-07-22T10:14:05;28.80;56.50
7666;DHT22;3875;46.562;4.898;2023-07-22T10:16:31;29.40;55.60
7666;DHT22;3875;46.562;4.898;2023-07-22T10:18:59;29.30;55.20
7666;DHT22;3875;46.562;4.898;2023-07-22T10:21:25;29.20;55.70
7666;DHT22;3875;46.562;4.898;2023-07-22T10:23:52;29.70;54.60
7666;DHT22;3875;46.562;4.898;2023-07-22T10:26:19;29.90;53.10
7666;DHT22;3875;46.562;4.898;2023-07-22T10:28:46;30.10;54.00
7666;DHT22;3875;46.562;4.898;2023-07-22T10:31:13;29.90;53.60
7666;DHT22;3875;46.562;4.898;2023-07-22T10:33:42;29.90;54.10
7666;DHT22;3875;46.562;4.898;2023-07-22T10:36:16;29.20;53.60
7666;DHT22;3875;46.562;4.898;2023-07-22T10:38:42;28.80;54.90
7666;DHT22;3875;46.562;4.898;2023-07-22T10:41:16;29.00;55.50
7666;DHT22;3875;46.562;4.898;2023-07-22T10:43:58;29.70;55.50
7666;DHT22;3875;46.562;4.898;2023-07-22T10:46:36;30.50;52.80
7666;DHT22;3875;46.562;4.898;2023-07-22T10:49:14;30.50;51.40
7666;DHT22;3875;46.562;4.898;2023-07-22T10:51:47;30.70;51.20
7666;DHT22;3875;46.562;4.898;2023-07-22T10:54:13;31.10;52.40
7666;DHT22;3875;46.562;4.898;2023-07-22T10:56:45;31.70;52.00
7666;DHT22;3875;46.562;4.898;2023-07-22T10:59:12;32.30;50.70
7666;DHT22;3875;46.562;4.898;2023-07-22T11:01:43;32.70;50.70
7666;DHT22;3875;46.562;4.898;2023-07-22T11:04:23;32.40;50.70
7666;DHT22;3875;46.562;4.898;2023-07-22T11:07:03;32.50;50.00
7666;DHT22;3875;46.562;4.898;2023-07-22T11:12:01;32.50;49.60
7666;DHT22;3875;46.562;4.898;2023-07-22T11:14:46;31.60;50.10
7666;DHT22;3875;46.562;4.898;2023-07-22T11:17:12;31.00;51.90
7666;DHT22;3875;46.562;4.898;2023-07-22T11:19:38;30.30;51.70
7666;DHT22;3875;46.562;4.898;2023-07-22T11:22:04;29.90;53.20
7666;DHT22;3875;46.562;4.898;2023-07-22T11:24:35;29.40;53.90
7666;DHT22;3875;46.562;4.898;2023-07-22T11:27:07;29.00;54.60
7666;DHT22;3875;46.562;4.898;2023-07-22T11:29:36;29.10;55.20
7666;DHT22;3875;46.562;4.898;2023-07-22T11:32:02;29.60;55.10
7666;DHT22;3875;46.562;4.898;2023-07-22T11:34:28;30.50;54.20
7666;DHT22;3875;46.562;4.898;2023-07-22T11:36:55;31.40;52.40
7666;DHT22;3875;46.562;4.898;2023-07-22T11:39:23;32.30;51.70
7666;DHT22;3875;46.562;4.898;2023-07-22T11:41:50;32.80;50.40
7666;DHT22;3875;46.562;4.898;2023-07-22T11:44:19;32.90;50.00
7666;DHT22;3875;46.562;4.898;2023-07-22T11:46:51;33.10;49.70
7666;DHT22;3875;46.562;4.898;2023-07-22T11:49:27;32.80;48.90
7666;DHT22;3875;46.562;4.898;2023-07-22T11:52:01;32.20;50.20
7666;DHT22;3875;46.562;4.898;2023-07-22T11:54:29;31.80;51.00
7666;DHT22;3875;46.562;4.898;2023-07-22T11:56:55;32.00;51.80
7666;DHT22;3875;46.562;4.898;2023-07-22T11:59:38;32.70;51.60
7666;DHT22;3875;46.562;4.898;2023-07-22T12:02:04;33.30;50.30
7666;DHT22;3875;46.562;4.898;2023-07-22T12:04:31;33.20;50.30
7666;DHT22;3875;46.562;4.898;2023-07-22T12:06:57;32.60;49.70
7666;DHT22;3875;46.562;4.898;2023-07-22T12:09:23;32.10;50.10
7666;DHT22;3875;46.562;4.898;2023-07-22T12:11:58;31.60;50.50
7666;DHT22;3875;46.562;4.898;2023-07-22T12:14:32;31.20;51.60
7666;DHT22;3875;46.562;4.898;2023-07-22T12:16:59;30.80;52.30
7666;DHT22;3875;46.562;4.898;2023-07-22T12:19:24;30.80;52.70
7666;DHT22;3875;46.562;4.898;2023-07-22T12:21:52;31.00;52.50
7666;DHT22;3875;46.562;4.898;2023-07-22T12:24:18;31.20;53.20
7666;DHT22;3875;46.562;4.898;2023-07-22T12:26:44;31.80;52.50
7666;DHT22;3875;46.562;4.898;2023-07-22T12:29:09;32.20;50.80
7666;DHT22;3875;46.562;4.898;2023-07-22T12:31:35;32.40;50.00
7666;DHT22;3875;46.562;4.898;2023-07-22T12:34:00;32.00;50.70
7666;DHT22;3875;46.562;4.898;2023-07-22T12:36:26;31.40;51.00
7666;DHT22;3875;46.562;4.898;2023-07-22T12:38:52;31.00;51.70
7666;DHT22;3875;46.562;4.898;2023-07-22T12:41:17;31.20;51.60
7666;DHT22;3875;46.562;4.898;2023-07-22T12:43:43;31.10;51.40
7666;DHT22;3875;46.562;4.898;2023-07-22T12:46:09;30.90;52.60
7666;DHT22;3875;46.562;4.898;2023-07-22T12:48:34;30.60;53.00
7666;DHT22;3875;46.562;4.898;2023-07-22T12:51:00;31.20;53.20
7666;DHT22;3875;46.562;4.898;2023-07-22T12:53:26;32.00;52.60
7666;DHT22;3875;46.562;4.898;2023-07-22T12:55:52;32.70;50.70
7666;DHT22;3875;46.562;4.898;2023-07-22T12:58:17;33.40;49.90
7666;DHT22;3875;46.562;4.898;2023-07-22T13:00:43;33.40;49.00
7666;DHT22;3875;46.562;4.898;2023-07-22T13:03:09;33.00;50.00
7666;DHT22;3875;46.562;4.898;2023-07-22T13:05:34;33.10;50.40
7666;DHT22;3875;46.562;4.898;2023-07-22T13:08:00;33.40;50.20
7666;DHT22;3875;46.562;4.898;2023-07-22T13:10:27;33.70;49.90
7666;DHT22;3875;46.562;4.898;2023-07-22T13:12:54;34.10;49.40
7666;DHT22;3875;46.562;4.898;2023-07-22T13:15:20;34.40;49.00
7666;DHT22;3875;46.562;4.898;2023-07-22T13:17:46;34.50;48.60
7666;DHT22;3875;46.562;4.898;2023-07-22T13:20:11;34.00;48.40
7666;DHT22;3875;46.562;4.898;2023-07-22T13:22:39;33.40;48.50
7666;DHT22;3875;46.562;4.898;2023-07-22T13:25:06;33.30;49.80
7666;DHT22;3875;46.562;4.898;2023-07-22T13:27:32;33.10;49.20
7666;DHT22;3875;46.562;4.898;2023-07-22T13:29:58;32.90;49.20
7666;DHT22;3875;46.562;4.898;2023-07-22T13:32:24;32.50;49.70
7666;DHT22;3875;46.562;4.898;2023-07-22T13:34:49;33.10;49.20
7666;DHT22;3875;46.562;4.898;2023-07-22T13:37:15;33.30;48.80
7666;DHT22;3875;46.562;4.898;2023-07-22T13:39:41;33.50;48.60
7666;DHT22;3875;46.562;4.898;2023-07-22T13:42:07;33.30;48.90
7666;DHT22;3875;46.562;4.898;2023-07-22T13:44:34;32.80;48.30
7666;DHT22;3875;46.562;4.898;2023-07-22T13:47:00;33.00;49.60
7666;DHT22;3875;46.562;4.898;2023-07-22T13:49:26;33.30;48.70
7666;DHT22;3875;46.562;4.898;2023-07-22T13:51:51;33.70;48.50
7666;DHT22;3875;46.562;4.898;2023-07-22T13:54:17;34.20;48.50
7666;DHT22;3875;46.562;4.898;2023-07-22T13:56:42;34.60;47.10
7666;DHT22;3875;46.562;4.898;2023-07-22T13:59:13;34.90;47.00
7666;DHT22;3875;46.562;4.898;2023-07-22T14:01:39;35.00;47.20
7666;DHT22;3875;46.562;4.898;2023-07-22T14:04:05;35.10;47.10
7666;DHT22;3875;46.562;4.898;2023-07-22T14:06:30;35.20;46.80
7666;DHT22;3875;46.562;4.898;2023-07-22T14:08:58;35.20;46.40
7666;DHT22;3875;46.562;4.898;2023-07-22T14:11:24;34.80;46.20
7666;DHT22;3875;46.562;4.898;2023-07-22T14:13:49;34.20;47.00
7666;DHT22;3875;46.562;4.898;2023-07-22T14:16:17;33.80;46.30
7666;DHT22;3875;46.562;4.898;2023-07-22T14:18:43;33.60;46.80
7666;DHT22;3875;46.562;4.898;2023-07-22T14:21:09;33.30;46.60
7666;DHT22;3875;46.562;4.898;2023-07-22T14:23:36;33.10;45.30
7666;DHT22;3875;46.562;4.898;2023-07-22T14:26:02;33.10;45.30
7666;DHT22;3875;46.562;4.898;2023-07-22T14:28:28;32.80;45.10
7666;DHT22;3875;46.562;4.898;2023-07-22T14:30:54;32.50;45.40
7666;DHT22;3875;46.562;4.898;2023-07-22T14:33:19;32.10;46.20
7666;DHT22;3875;46.562;4.898;2023-07-22T14:35:45;31.90;47.00
7666;DHT22;3875;46.562;4.898;2023-07-22T14:38:11;32.30;47.80
7666;DHT22;3875;46.562;4.898;2023-07-22T14:40:37;33.20;47.50
7666;DHT22;3875;46.562;4.898;2023-07-22T14:43:02;33.30;46.70
7666;DHT22;3875;46.562;4.898;2023-07-22T14:45:29;32.90;45.50
7666;DHT22;3875;46.562;4.898;2023-07-22T14:47:55;32.90;45.60
7666;DHT22;3875;46.562;4.898;2023-07-22T14:50:21;32.50;44.40
7666;DHT22;3875;46.562;4.898;2023-07-22T14:52:47;31.80;45.80
7666;DHT22;3875;46.562;4.898;2023-07-22T14:55:12;31.50;46.70
7666;DHT22;3875;46.562;4.898;2023-07-22T14:57:38;31.80;46.50
7666;DHT22;3875;46.562;4.898;2023-07-22T15:00:05;32.20;46.50
7666;DHT22;3875;46.562;4.898;2023-07-22T15:02:32;32.70;46.10
7666;DHT22;3875;46.562;4.898;2023-07-22T15:04:58;33.00;44.60
7666;DHT22;3875;46.562;4.898;2023-07-22T15:07:23;33.50;43.60
7666;DHT22;3875;46.562;4.898;2023-07-22T15:09:51;33.80;44.50
7666;DHT22;3875;46.562;4.898;2023-07-22T15:12:16;33.40;44.00
7666;DHT22;3875;46.562;4.898;2023-07-22T15:14:43;32.80;44.50
7666;DHT22;3875;46.562;4.898;2023-07-22T15:17:09;32.20;44.80
7666;DHT22;3875;46.562;4.898;2023-07-22T15:19:35;31.50;45.90
7666;DHT22;3875;46.562;4.898;2023-07-22T15:22:00;31.00;47.00
7666;DHT22;3875;46.562;4.898;2023-07-22T15:24:27;30.70;46.80
7666;DHT22;3875;46.562;4.898;2023-07-22T15:26:52;30.80;47.60
7666;DHT22;3875;46.562;4.898;2023-07-22T15:29:18;31.40;47.50
7666;DHT22;3875;46.562;4.898;2023-07-22T15:31:43;31.90;46.10
7666;DHT22;3875;46.562;4.898;2023-07-22T15:34:09;32.40;46.40
7666;DHT22;3875;46.562;4.898;2023-07-22T15:36:35;33.00;46.10
7666;DHT22;3875;46.562;4.898;2023-07-22T15:39:00;33.30;45.50
7666;DHT22;3875;46.562;4.898;2023-07-22T15:41:26;33.60;45.80
7666;DHT22;3875;46.562;4.898;2023-07-22T15:43:51;33.70;45.70
7666;DHT22;3875;46.562;4.898;2023-07-22T15:46:17;33.40;44.50
7666;DHT22;3875;46.562;4.898;2023-07-22T15:48:43;33.20;44.60
7666;DHT22;3875;46.562;4.898;2023-07-22T15:51:08;33.00;45.30
7666;DHT22;3875;46.562;4.898;2023-07-22T15:53:34;33.00;45.10
7666;DHT22;3875;46.562;4.898;2023-07-22T15:56:00;33.00;45.60
7666;DHT22;3875;46.562;4.898;2023-07-22T15:58:25;33.30;44.80
7666;DHT22;3875;46.562;4.898;2023-07-22T16:00:51;33.30;44.90
7666;DHT22;3875;46.562;4.898;2023-07-22T16:03:17;33.20;44.60